createdAt,value
2018-04-15T00:03:57.209Z,38.57
2018-04-15T00:08:48.257Z,38.60
2018-04-15T00:13:40.002Z,36.63
2018-04-15T00:18:31.757Z,37.77
2018-04-15T00:23:22.764Z,35.27
2018-04-15T00:28:14.569Z,37.53
2018-04-15T00:33:05.579Z,39.73
2018-04-15T00:38:00.782Z,34.27
2018-04-15T00:42:51.924Z,32.73
2018-04-15T00:47:42.948Z,33.50
2018-04-15T00:52:34.033Z,29.40
2018-04-15T00:57:25.815Z,29.17
2018-04-15T01:02:16.802Z,35.23
2018-04-15T01:07:07.845Z,34.53
2018-04-15T01:11:58.860Z,33.00
2018-04-15T01:16:49.853Z,32.50
2018-04-15T01:21:41.629Z,31.80
2018-04-15T01:26:32.610Z,34.13
2018-04-15T01:31:24.427Z,31.40
2018-04-15T01:36:15.444Z,35.50
2018-04-15T01:41:06.452Z,30.37
2018-04-15T01:45:57.560Z,31.57
2018-04-15T01:50:48.588Z,32.47
2018-04-15T01:55:39.735Z,34.63
2018-04-15T02:00:30.740Z,38.07
2018-04-15T02:05:21.838Z,41.47
2018-04-15T02:10:12.835Z,36.77
2018-04-15T02:15:04.581Z,36.30
2018-04-15T02:19:56.347Z,39.77
2018-04-15T02:24:47.379Z,38.53
2018-04-15T02:29:38.371Z,37.43
2018-04-15T02:34:30.139Z,35.93
2018-04-15T02:39:21.192Z,42.20
2018-04-15T02:44:12.211Z,38.67
2018-04-15T02:49:03.195Z,40.17
2018-04-15T02:53:54.217Z,38.37
2018-04-15T02:58:45.228Z,40.80
2018-04-15T03:03:37.012Z,39.63
2018-04-15T03:08:28.010Z,73.87
2018-04-15T03:13:19.033Z,77.87
2018-04-15T03:18:10.023Z,69.13
2018-04-15T03:23:01.849Z,58.70
2018-04-15T03:27:53.605Z,48.57
2018-04-15T03:32:45.359Z,39.30
2018-04-15T03:37:37.127Z,36.30
2018-04-15T03:42:28.155Z,34.13
2018-04-15T03:47:19.156Z,32.47
2018-04-15T03:52:10.155Z,36.80
2018-04-15T03:57:01.173Z,40.43
2018-04-15T04:01:52.283Z,38.93
2018-04-15T04:06:43.392Z,36.07
2018-04-15T04:11:34.417Z,37.63
2018-04-15T04:16:25.419Z,38.27
2018-04-15T04:21:35.190Z,38.07
2018-04-15T04:26:26.302Z,39.67
2018-04-15T04:31:18.304Z,38.90
2018-04-15T04:36:09.297Z,41.70
2018-04-15T04:41:00.279Z,41.73
2018-04-15T04:45:51.294Z,46.60
2018-04-15T04:50:43.085Z,41.07
2018-04-15T04:55:34.188Z,41.87
2018-04-15T05:00:25.185Z,39.50
2018-04-15T05:05:16.195Z,41.17
2018-04-15T05:10:07.277Z,39.73
2018-04-15T05:14:58.287Z,42.43
2018-04-15T05:19:49.322Z,46.03
2018-04-15T05:24:40.337Z,39.87
2018-04-15T05:29:31.351Z,47.03
2018-04-15T05:34:22.375Z,41.97
2018-04-15T05:39:13.376Z,45.60
2018-04-15T05:44:04.376Z,42.77
2018-04-15T05:48:56.126Z,44.50
2018-04-15T05:53:47.890Z,47.77
2018-04-15T05:58:38.913Z,44.53
2018-04-15T06:03:29.975Z,40.93
2018-04-15T06:08:20.968Z,48.30
2018-04-15T06:13:12.094Z,46.13
2018-04-15T06:18:03.092Z,47.10
2018-04-15T06:22:54.155Z,46.37
2018-04-15T06:27:45.172Z,51.60
2018-04-15T06:32:36.171Z,46.73
2018-04-15T06:37:27.242Z,48.13
2018-04-15T06:42:18.261Z,50.93
2018-04-15T06:47:09.251Z,44.87
2018-04-15T06:52:00.250Z,46.13
2018-04-15T06:56:51.312Z,43.73
2018-04-15T07:01:42.335Z,45.17
2018-04-15T07:06:33.343Z,41.40
2018-04-15T07:11:24.369Z,43.87
2018-04-15T07:16:15.411Z,41.70
2018-04-15T07:21:06.507Z,39.77
2018-04-15T07:25:57.618Z,42.63
2018-04-15T07:30:48.615Z,36.97
2018-04-15T07:35:40.354Z,38.23
2018-04-15T07:40:32.174Z,31.90
2018-04-15T07:45:23.180Z,36.60
2018-04-15T07:50:14.183Z,31.17
2018-04-15T07:55:05.187Z,28.13
2018-04-15T07:59:56.198Z,29.20
2018-04-15T08:04:48.029Z,25.57
2018-04-15T08:09:39.791Z,25.03
2018-04-15T08:14:30.783Z,24.43
2018-04-15T08:19:21.858Z,21.03
2018-04-15T08:24:12.909Z,22.07
2018-04-15T08:29:03.940Z,19.53
2018-04-15T08:33:54.966Z,18.50
2018-04-15T08:38:45.966Z,16.73
2018-04-15T08:43:37.044Z,15.87
2018-04-15T08:48:28.075Z,13.60
2018-04-15T08:53:19.071Z,16.17
2018-04-15T08:58:10.815Z,13.40
2018-04-15T09:03:02.547Z,15.63
2018-04-15T09:07:53.544Z,13.73
2018-04-15T09:12:44.567Z,12.43
2018-04-15T09:17:35.592Z,12.70
2018-04-15T09:22:26.645Z,14.87
2018-04-15T09:27:18.448Z,12.60
2018-04-15T09:32:09.481Z,11.53
2018-04-15T09:37:00.524Z,9.70
2018-04-15T09:41:52.820Z,10.53
2018-04-15T09:46:43.815Z,11.37
2018-04-15T09:51:35.571Z,9.63
2018-04-15T09:56:26.593Z,12.13
2018-04-15T10:01:17.683Z,12.23
2018-04-15T10:06:09.452Z,11.73
2018-04-15T10:11:00.458Z,11.80
2018-04-15T10:15:52.253Z,12.00
2018-04-15T10:20:43.360Z,11.33
2018-04-15T10:25:34.375Z,8.67
2018-04-15T10:30:25.397Z,9.70
2018-04-15T10:35:16.417Z,8.97
2018-04-15T10:40:07.421Z,11.23
2018-04-15T10:44:58.487Z,8.20
2018-04-15T10:49:49.553Z,7.87
2018-04-15T10:54:41.348Z,8.07
2018-04-15T10:59:32.400Z,6.40
2018-04-15T11:04:23.467Z,7.93
2018-04-15T11:09:14.489Z,6.27
2018-04-15T11:14:05.541Z,6.33
2018-04-15T11:18:57.310Z,6.60
2018-04-15T11:23:48.536Z,6.60
2018-04-15T11:28:39.615Z,6.27
2018-04-15T11:33:30.651Z,5.37
2018-04-15T11:38:21.728Z,5.17
2018-04-15T11:43:12.727Z,5.40
2018-04-15T11:48:03.849Z,3.73
2018-04-15T11:52:54.842Z,4.87
2018-04-15T11:57:45.840Z,8.13
2018-04-15T12:02:37.090Z,5.47
2018-04-15T12:07:28.124Z,3.70
2018-04-15T12:12:19.144Z,3.13
2018-04-15T12:17:10.201Z,8.33
2018-04-15T12:22:01.163Z,3.93
2018-04-15T12:26:52.295Z,4.50
2018-04-15T12:31:43.323Z,8.17
2018-04-15T12:36:34.553Z,3.80
2018-04-15T12:41:25.582Z,4.07
2018-04-15T12:46:16.627Z,6.33
2018-04-15T12:51:07.645Z,4.20
2018-04-15T12:55:58.721Z,4.50
2018-04-15T13:00:49.760Z,4.57
2018-04-15T13:05:40.819Z,2.93
2018-04-15T13:10:31.915Z,5.67
2018-04-15T13:15:22.911Z,4.30
2018-04-15T13:20:14.661Z,4.00
2018-04-15T13:25:05.704Z,3.20
2018-04-15T13:29:56.788Z,4.00
2018-04-15T13:34:48.595Z,2.93
2018-04-15T13:39:39.625Z,3.50
2018-04-15T13:44:30.675Z,3.47
2018-04-15T13:49:21.703Z,5.97
2018-04-15T13:54:13.549Z,3.93
2018-04-15T13:59:04.595Z,3.27
2018-04-15T14:03:55.608Z,6.07
2018-04-15T14:08:47.377Z,7.60
2018-04-15T14:13:38.439Z,7.93
2018-04-15T14:18:30.215Z,4.30
2018-04-15T14:23:22.031Z,5.30
2018-04-15T14:28:13.104Z,7.37
2018-04-15T14:33:04.117Z,4.60
2018-04-15T14:37:55.119Z,5.17
2018-04-15T14:42:46.907Z,3.77
2018-04-15T14:47:37.939Z,6.27
2018-04-15T14:52:29.276Z,9.23
2018-04-15T14:57:20.296Z,8.60
2018-04-15T15:02:11.311Z,6.43
2018-04-15T15:07:02.381Z,8.70
2018-04-15T15:11:54.265Z,4.47
2018-04-15T15:16:45.527Z,4.60
2018-04-15T15:21:37.324Z,3.60
2018-04-15T15:26:28.316Z,4.27
2018-04-15T15:31:20.052Z,11.47
2018-04-15T15:36:11.943Z,4.90
2018-04-15T15:41:02.944Z,6.37
2018-04-15T15:45:54.144Z,4.73
2018-04-15T15:50:45.917Z,8.50
2018-04-15T15:55:36.947Z,4.47
2018-04-15T16:00:27.951Z,7.37
2018-04-15T16:05:19.003Z,6.53
2018-04-15T16:10:10.064Z,6.93
2018-04-15T16:15:01.069Z,6.30
2018-04-15T16:19:52.111Z,6.97
2018-04-15T16:24:43.167Z,8.00
2018-04-15T16:29:34.276Z,7.33
2018-04-15T16:34:26.007Z,4.90
2018-04-15T16:39:17.952Z,7.33
2018-04-15T16:44:09.736Z,4.73
2018-04-15T16:49:00.748Z,5.83
2018-04-15T16:53:51.932Z,10.67
2018-04-15T16:58:42.942Z,5.67
2018-04-15T17:03:33.976Z,10.30
2018-04-15T17:08:25.758Z,10.63
2018-04-15T17:13:16.799Z,9.73
2018-04-15T17:18:07.892Z,8.43
2018-04-15T17:22:58.953Z,8.27
2018-04-15T17:27:49.955Z,14.60
2018-04-15T17:32:41.287Z,10.00
2018-04-15T17:37:32.487Z,11.83
2018-04-15T17:42:24.359Z,10.37
2018-04-15T17:47:15.385Z,9.97
2018-04-15T17:52:06.412Z,13.20
2018-04-15T17:56:57.549Z,11.97
2018-04-15T18:01:48.561Z,11.80
2018-04-15T18:06:39.731Z,10.30
2018-04-15T18:11:30.863Z,15.83
2018-04-15T18:16:22.628Z,12.53
2018-04-15T18:21:13.641Z,16.73
2018-04-15T18:26:04.721Z,11.27
2018-04-15T18:30:57.263Z,9.93
2018-04-15T18:35:48.275Z,17.67
2018-04-15T18:40:39.311Z,11.63
2018-04-15T18:45:30.431Z,13.30
2018-04-15T18:50:21.492Z,12.00
2018-04-15T18:55:13.961Z,20.40
2018-04-15T19:00:05.742Z,16.10
2018-04-15T19:04:56.794Z,18.70
2018-04-15T19:09:48.609Z,20.97
2018-04-15T19:14:39.649Z,20.57
2018-04-15T19:19:30.660Z,12.33
2018-04-15T19:24:21.701Z,12.47
2018-04-15T19:29:12.712Z,14.93
2018-04-15T19:34:03.719Z,13.17
2018-04-15T19:38:54.770Z,16.23
2018-04-15T19:43:45.800Z,17.73
2018-04-15T19:48:38.281Z,11.43
2018-04-15T19:53:30.801Z,8.97
2018-04-15T19:58:21.845Z,12.03
2018-04-15T20:03:12.927Z,9.38
2018-04-15T20:08:03.939Z,9.80
2018-04-15T20:12:55.041Z,9.27
2018-04-15T20:17:46.115Z,9.20
2018-04-15T20:22:37.249Z,9.10
2018-04-15T20:27:28.266Z,11.03
2018-04-15T20:32:19.273Z,10.43
2018-04-15T20:37:10.286Z,11.23
2018-04-15T20:42:01.411Z,14.43
2018-04-15T20:46:52.460Z,12.27
2018-04-15T20:51:43.467Z,11.90
2018-04-15T20:56:34.495Z,12.23
2018-04-15T21:01:25.530Z,15.20
2018-04-15T21:06:16.613Z,13.63
2018-04-15T21:11:07.665Z,16.03
2018-04-15T21:15:58.682Z,15.33
2018-04-15T21:20:49.703Z,17.80
2018-04-15T21:25:40.733Z,18.73
2018-04-15T21:30:31.761Z,16.93
2018-04-15T21:35:22.763Z,18.50
2018-04-15T21:40:13.840Z,19.37
2018-04-15T21:45:05.595Z,19.23
2018-04-15T21:49:57.424Z,20.13
2018-04-15T21:54:49.185Z,27.47
2018-04-15T21:59:40.251Z,18.07
2018-04-15T22:04:31.273Z,19.63
2018-04-15T22:09:22.355Z,18.07
2018-04-15T22:14:13.367Z,20.90
2018-04-15T22:19:04.410Z,20.73
2018-04-15T22:23:55.543Z,18.70
2018-04-15T22:28:46.567Z,19.83
2018-04-15T22:33:37.584Z,20.33
2018-04-15T22:38:28.605Z,22.30
2018-04-15T22:43:19.740Z,21.57
2018-04-15T22:48:10.743Z,27.53
2018-04-15T22:53:01.768Z,23.43
2018-04-15T22:57:52.792Z,19.97
2018-04-15T23:02:43.790Z,24.07
2018-04-15T23:07:35.557Z,22.47
2018-04-15T23:12:26.592Z,23.50
2018-04-15T23:17:17.583Z,22.87
2018-04-15T23:22:09.323Z,25.47
2018-04-15T23:27:01.060Z,23.97
2018-04-15T23:31:52.803Z,25.97
2018-04-15T23:36:44.576Z,24.77
2018-04-15T23:41:35.583Z,22.93
2018-04-15T23:46:26.605Z,25.03
2018-04-15T23:51:17.650Z,26.17
2018-04-15T23:56:08.654Z,24.00
